<?xml version="1.0" encoding="UTF-8" standalone="no" ?>
<gpx xmlns="http://www.topografix.com/GPX/1/1" xmlns:xsi="http://www.w3.org/2001/XMLSchema-instance" xsi:schemaLocation="http://www.topografix.com/GPX/1/1 http://www.topografix.com/GPX/1/1/gpx.xsd" version="1.1" creator="VisuGPX - https://www.visugpx.com">
  <metadata>
    <name>Chateaurenard, ( Signes) la maison du pendu-11,8 kms et 210m</name>
  </metadata>
  <wpt lat="43.27361" lon="5.79334">
    <ele>447</ele>
    <name><![CDATA[Point de passage 1]]></name>
    <type><![CDATA[GENERIC]]></type>
  </wpt>
  <wpt lat="43.27358" lon="5.79335">
    <ele>447</ele>
    <name><![CDATA[Point de passage 2]]></name>
    <type><![CDATA[GENERIC]]></type>
  </wpt>
  <trk>
    <name><![CDATA[Chateaurenard, ( Signes) la maison du pendu-11,8 kms et 210m]]></name>
    <trkseg>
      <trkpt lat="43.27361" lon="5.79334">
        <ele>447</ele>
        <time>2025-10-08T12:50:01.000Z</time>
      </trkpt>
      <trkpt lat="43.27366" lon="5.79333">
        <ele>447</ele>
        <time>2025-10-08T12:50:06.000Z</time>
      </trkpt>
      <trkpt lat="43.27405" lon="5.79351">
        <ele>445</ele>
        <time>2025-10-08T12:50:53.000Z</time>
      </trkpt>
      <trkpt lat="43.27402" lon="5.79322">
        <ele>445</ele>
        <time>2025-10-08T12:51:18.000Z</time>
      </trkpt>
      <trkpt lat="43.27397" lon="5.79315">
        <ele>445</ele>
        <time>2025-10-08T12:51:26.000Z</time>
      </trkpt>
      <trkpt lat="43.27385" lon="5.7931">
        <ele>444</ele>
        <time>2025-10-08T12:51:40.000Z</time>
      </trkpt>
      <trkpt lat="43.27373" lon="5.79305">
        <ele>444</ele>
        <time>2025-10-08T12:51:54.000Z</time>
      </trkpt>
      <trkpt lat="43.27346" lon="5.79288">
        <ele>444</ele>
        <time>2025-10-08T12:52:28.000Z</time>
      </trkpt>
      <trkpt lat="43.2733" lon="5.79267">
        <ele>444</ele>
        <time>2025-10-08T12:52:54.000Z</time>
      </trkpt>
      <trkpt lat="43.2731" lon="5.79228">
        <ele>443</ele>
        <time>2025-10-08T12:53:34.000Z</time>
      </trkpt>
      <trkpt lat="43.27291" lon="5.79201">
        <ele>443</ele>
        <time>2025-10-08T12:54:06.000Z</time>
      </trkpt>
      <trkpt lat="43.27282" lon="5.79166">
        <ele>442</ele>
        <time>2025-10-08T12:54:37.000Z</time>
      </trkpt>
      <trkpt lat="43.27282" lon="5.79127">
        <ele>442</ele>
        <time>2025-10-08T12:55:10.000Z</time>
      </trkpt>
      <trkpt lat="43.27288" lon="5.79077">
        <ele>441</ele>
        <time>2025-10-08T12:55:52.000Z</time>
      </trkpt>
      <trkpt lat="43.27287" lon="5.79052">
        <ele>440</ele>
        <time>2025-10-08T12:56:13.000Z</time>
      </trkpt>
      <trkpt lat="43.27269" lon="5.79011">
        <ele>441</ele>
        <time>2025-10-08T12:57:03.000Z</time>
      </trkpt>
      <trkpt lat="43.27237" lon="5.78997">
        <ele>438</ele>
        <time>2025-10-08T12:57:42.000Z</time>
      </trkpt>
      <trkpt lat="43.27221" lon="5.78971">
        <ele>438</ele>
        <time>2025-10-08T12:58:10.000Z</time>
      </trkpt>
      <trkpt lat="43.27221" lon="5.78957">
        <ele>438</ele>
        <time>2025-10-08T12:58:22.000Z</time>
      </trkpt>
      <trkpt lat="43.27228" lon="5.78924">
        <ele>437</ele>
        <time>2025-10-08T12:58:51.000Z</time>
      </trkpt>
      <trkpt lat="43.27237" lon="5.78806">
        <ele>431</ele>
        <time>2025-10-08T13:00:29.000Z</time>
      </trkpt>
      <trkpt lat="43.27205" lon="5.78682">
        <ele>428</ele>
        <time>2025-10-08T13:02:18.000Z</time>
      </trkpt>
      <trkpt lat="43.27206" lon="5.78645">
        <ele>426</ele>
        <time>2025-10-08T13:02:49.000Z</time>
      </trkpt>
      <trkpt lat="43.27242" lon="5.78529">
        <ele>422</ele>
        <time>2025-10-08T13:04:35.000Z</time>
      </trkpt>
      <trkpt lat="43.27259" lon="5.78473">
        <ele>419</ele>
        <time>2025-10-08T13:05:25.000Z</time>
      </trkpt>
      <trkpt lat="43.27275" lon="5.78402">
        <ele>418</ele>
        <time>2025-10-08T13:06:28.000Z</time>
      </trkpt>
      <trkpt lat="43.27275" lon="5.78362">
        <ele>416</ele>
        <time>2025-10-08T13:07:01.000Z</time>
      </trkpt>
      <trkpt lat="43.27285" lon="5.78321">
        <ele>415</ele>
        <time>2025-10-08T13:07:37.000Z</time>
      </trkpt>
      <trkpt lat="43.27292" lon="5.78263">
        <ele>412</ele>
        <time>2025-10-08T13:08:26.000Z</time>
      </trkpt>
      <trkpt lat="43.27298" lon="5.78236">
        <ele>412</ele>
        <time>2025-10-08T13:08:50.000Z</time>
      </trkpt>
      <trkpt lat="43.27312" lon="5.78202">
        <ele>409</ele>
        <time>2025-10-08T13:09:22.000Z</time>
      </trkpt>
      <trkpt lat="43.27364" lon="5.78155">
        <ele>406</ele>
        <time>2025-10-08T13:10:34.000Z</time>
      </trkpt>
      <trkpt lat="43.2738" lon="5.78119">
        <ele>404</ele>
        <time>2025-10-08T13:11:09.000Z</time>
      </trkpt>
      <trkpt lat="43.27384" lon="5.78067">
        <ele>402</ele>
        <time>2025-10-08T13:11:53.000Z</time>
      </trkpt>
      <trkpt lat="43.27373" lon="5.77987">
        <ele>400</ele>
        <time>2025-10-08T13:13:01.000Z</time>
      </trkpt>
      <trkpt lat="43.27355" lon="5.77947">
        <ele>399</ele>
        <time>2025-10-08T13:13:39.000Z</time>
      </trkpt>
      <trkpt lat="43.27315" lon="5.77911">
        <ele>397</ele>
        <time>2025-10-08T13:14:34.000Z</time>
      </trkpt>
      <trkpt lat="43.27311" lon="5.7789">
        <ele>396</ele>
        <time>2025-10-08T13:14:52.000Z</time>
      </trkpt>
      <trkpt lat="43.27295" lon="5.77819">
        <ele>394</ele>
        <time>2025-10-08T13:15:54.000Z</time>
      </trkpt>
      <trkpt lat="43.27272" lon="5.7777">
        <ele>394</ele>
        <time>2025-10-08T13:16:43.000Z</time>
      </trkpt>
      <trkpt lat="43.27265" lon="5.77742">
        <ele>393</ele>
        <time>2025-10-08T13:17:08.000Z</time>
      </trkpt>
      <trkpt lat="43.27266" lon="5.77685">
        <ele>391</ele>
        <time>2025-10-08T13:17:55.000Z</time>
      </trkpt>
      <trkpt lat="43.27274" lon="5.77628">
        <ele>390</ele>
        <time>2025-10-08T13:18:44.000Z</time>
      </trkpt>
      <trkpt lat="43.27276" lon="5.77578">
        <ele>389</ele>
        <time>2025-10-08T13:19:26.000Z</time>
      </trkpt>
      <trkpt lat="43.2728" lon="5.77561">
        <ele>388</ele>
        <time>2025-10-08T13:19:41.000Z</time>
      </trkpt>
      <trkpt lat="43.27293" lon="5.77537">
        <ele>388</ele>
        <time>2025-10-08T13:20:06.000Z</time>
      </trkpt>
      <trkpt lat="43.27293" lon="5.77512">
        <ele>388</ele>
        <time>2025-10-08T13:20:27.000Z</time>
      </trkpt>
      <trkpt lat="43.27301" lon="5.77439">
        <ele>386</ele>
        <time>2025-10-08T13:21:28.000Z</time>
      </trkpt>
      <trkpt lat="43.27294" lon="5.77366">
        <ele>386</ele>
        <time>2025-10-08T13:22:29.000Z</time>
      </trkpt>
      <trkpt lat="43.27288" lon="5.77334">
        <ele>385</ele>
        <time>2025-10-08T13:22:57.000Z</time>
      </trkpt>
      <trkpt lat="43.27287" lon="5.77287">
        <ele>385</ele>
        <time>2025-10-08T13:23:36.000Z</time>
      </trkpt>
      <trkpt lat="43.27276" lon="5.77152">
        <ele>383</ele>
        <time>2025-10-08T13:25:29.000Z</time>
      </trkpt>
      <trkpt lat="43.27268" lon="5.77123">
        <ele>383</ele>
        <time>2025-10-08T13:25:55.000Z</time>
      </trkpt>
      <trkpt lat="43.27277" lon="5.77114">
        <ele>383</ele>
        <time>2025-10-08T13:26:07.000Z</time>
      </trkpt>
      <trkpt lat="43.27323" lon="5.77023">
        <ele>382</ele>
        <time>2025-10-08T13:27:40.000Z</time>
      </trkpt>
      <trkpt lat="43.27335" lon="5.77005">
        <ele>382</ele>
        <time>2025-10-08T13:28:00.000Z</time>
      </trkpt>
      <trkpt lat="43.27344" lon="5.76986">
        <ele>383</ele>
        <time>2025-10-08T13:28:29.000Z</time>
      </trkpt>
      <trkpt lat="43.2737" lon="5.76947">
        <ele>393</ele>
        <time>2025-10-08T13:30:56.000Z</time>
      </trkpt>
      <trkpt lat="43.2737" lon="5.76947">
        <ele>393</ele>
        <time>2025-10-08T13:30:56.000Z</time>
      </trkpt>
      <trkpt lat="43.27398" lon="5.7693">
        <ele>403</ele>
        <time>2025-10-08T13:33:13.000Z</time>
      </trkpt>
      <trkpt lat="43.27422" lon="5.76889">
        <ele>409</ele>
        <time>2025-10-08T13:34:59.000Z</time>
      </trkpt>
      <trkpt lat="43.27435" lon="5.76881">
        <ele>411</ele>
        <time>2025-10-08T13:35:36.000Z</time>
      </trkpt>
      <trkpt lat="43.2745" lon="5.76883">
        <ele>410</ele>
        <time>2025-10-08T13:35:53.000Z</time>
      </trkpt>
      <trkpt lat="43.27487" lon="5.7691">
        <ele>412</ele>
        <time>2025-10-08T13:37:02.000Z</time>
      </trkpt>
      <trkpt lat="43.27511" lon="5.76906">
        <ele>413</ele>
        <time>2025-10-08T13:37:40.000Z</time>
      </trkpt>
      <trkpt lat="43.2752" lon="5.76903">
        <ele>413</ele>
        <time>2025-10-08T13:37:51.000Z</time>
      </trkpt>
      <trkpt lat="43.27566" lon="5.769">
        <ele>417</ele>
        <time>2025-10-08T13:39:25.000Z</time>
      </trkpt>
      <trkpt lat="43.27603" lon="5.76911">
        <ele>419</ele>
        <time>2025-10-08T13:40:29.000Z</time>
      </trkpt>
      <trkpt lat="43.27624" lon="5.76919">
        <ele>420</ele>
        <time>2025-10-08T13:41:03.000Z</time>
      </trkpt>
      <trkpt lat="43.27689" lon="5.76963">
        <ele>423</ele>
        <time>2025-10-08T13:42:58.000Z</time>
      </trkpt>
      <trkpt lat="43.27707" lon="5.76981">
        <ele>424</ele>
        <time>2025-10-08T13:43:34.000Z</time>
      </trkpt>
      <trkpt lat="43.27777" lon="5.77099">
        <ele>426</ele>
        <time>2025-10-08T13:46:01.000Z</time>
      </trkpt>
      <trkpt lat="43.27788" lon="5.77111">
        <ele>426</ele>
        <time>2025-10-08T13:46:18.000Z</time>
      </trkpt>
      <trkpt lat="43.27801" lon="5.77117">
        <ele>427</ele>
        <time>2025-10-08T13:46:44.000Z</time>
      </trkpt>
      <trkpt lat="43.2782" lon="5.77146">
        <ele>428</ele>
        <time>2025-10-08T13:47:27.000Z</time>
      </trkpt>
      <trkpt lat="43.27826" lon="5.77155">
        <ele>428</ele>
        <time>2025-10-08T13:47:38.000Z</time>
      </trkpt>
      <trkpt lat="43.27863" lon="5.77222">
        <ele>429</ele>
        <time>2025-10-08T13:48:58.000Z</time>
      </trkpt>
      <trkpt lat="43.27934" lon="5.77317">
        <ele>433</ele>
        <time>2025-10-08T13:51:33.000Z</time>
      </trkpt>
      <trkpt lat="43.28021" lon="5.77414">
        <ele>437</ele>
        <time>2025-10-08T13:54:22.000Z</time>
      </trkpt>
      <trkpt lat="43.281" lon="5.77425">
        <ele>442</ele>
        <time>2025-10-08T13:56:45.000Z</time>
      </trkpt>
      <trkpt lat="43.28105" lon="5.77426">
        <ele>442</ele>
        <time>2025-10-08T13:56:51.000Z</time>
      </trkpt>
      <trkpt lat="43.28165" lon="5.77448">
        <ele>448</ele>
        <time>2025-10-08T13:59:03.000Z</time>
      </trkpt>
      <trkpt lat="43.28233" lon="5.77487">
        <ele>454</ele>
        <time>2025-10-08T14:01:29.000Z</time>
      </trkpt>
      <trkpt lat="43.28269" lon="5.77513">
        <ele>457</ele>
        <time>2025-10-08T14:02:47.000Z</time>
      </trkpt>
      <trkpt lat="43.28293" lon="5.77512">
        <ele>460</ele>
        <time>2025-10-08T14:03:45.000Z</time>
      </trkpt>
      <trkpt lat="43.28331" lon="5.7752">
        <ele>465</ele>
        <time>2025-10-08T14:05:21.000Z</time>
      </trkpt>
      <trkpt lat="43.28358" lon="5.77531">
        <ele>469</ele>
        <time>2025-10-08T14:06:34.000Z</time>
      </trkpt>
      <trkpt lat="43.28407" lon="5.7753">
        <ele>472</ele>
        <time>2025-10-08T14:08:01.000Z</time>
      </trkpt>
      <trkpt lat="43.28424" lon="5.77538">
        <ele>473</ele>
        <time>2025-10-08T14:08:32.000Z</time>
      </trkpt>
      <trkpt lat="43.28473" lon="5.77583">
        <ele>481</ele>
        <time>2025-10-08T14:11:02.000Z</time>
      </trkpt>
      <trkpt lat="43.28488" lon="5.77584">
        <ele>483</ele>
        <time>2025-10-08T14:11:39.000Z</time>
      </trkpt>
      <trkpt lat="43.28526" lon="5.77563">
        <ele>488</ele>
        <time>2025-10-08T14:13:18.000Z</time>
      </trkpt>
      <trkpt lat="43.28557" lon="5.77564">
        <ele>490</ele>
        <time>2025-10-08T14:14:13.000Z</time>
      </trkpt>
      <trkpt lat="43.28593" lon="5.77559">
        <ele>494</ele>
        <time>2025-10-08T14:15:37.000Z</time>
      </trkpt>
      <trkpt lat="43.28635" lon="5.77541">
        <ele>495</ele>
        <time>2025-10-08T14:16:38.000Z</time>
      </trkpt>
      <trkpt lat="43.28655" lon="5.77526">
        <ele>496</ele>
        <time>2025-10-08T14:17:14.000Z</time>
      </trkpt>
      <trkpt lat="43.28728" lon="5.77449">
        <ele>503</ele>
        <time>2025-10-08T14:20:12.000Z</time>
      </trkpt>
      <trkpt lat="43.28734" lon="5.77431">
        <ele>503</ele>
        <time>2025-10-08T14:20:28.000Z</time>
      </trkpt>
      <trkpt lat="43.28736" lon="5.77385">
        <ele>505</ele>
        <time>2025-10-08T14:21:27.000Z</time>
      </trkpt>
      <trkpt lat="43.28743" lon="5.7737">
        <ele>505</ele>
        <time>2025-10-08T14:21:42.000Z</time>
      </trkpt>
      <trkpt lat="43.28784" lon="5.77333">
        <ele>504</ele>
        <time>2025-10-08T14:22:38.000Z</time>
      </trkpt>
      <trkpt lat="43.28831" lon="5.77306">
        <ele>505</ele>
        <time>2025-10-08T14:23:47.000Z</time>
      </trkpt>
      <trkpt lat="43.28825" lon="5.7726">
        <ele>506</ele>
        <time>2025-10-08T14:24:36.000Z</time>
      </trkpt>
      <trkpt lat="43.2883" lon="5.77216">
        <ele>505</ele>
        <time>2025-10-08T14:25:13.000Z</time>
      </trkpt>
      <trkpt lat="43.28836" lon="5.77203">
        <ele>505</ele>
        <time>2025-10-08T14:25:25.000Z</time>
      </trkpt>
      <trkpt lat="43.2885" lon="5.772">
        <ele>504</ele>
        <time>2025-10-08T14:25:42.000Z</time>
      </trkpt>
      <trkpt lat="43.28874" lon="5.77203">
        <ele>504</ele>
        <time>2025-10-08T14:26:09.000Z</time>
      </trkpt>
      <trkpt lat="43.28879" lon="5.77202">
        <ele>505</ele>
        <time>2025-10-08T14:26:26.000Z</time>
      </trkpt>
      <trkpt lat="43.28904" lon="5.7718">
        <ele>504</ele>
        <time>2025-10-08T14:26:59.000Z</time>
      </trkpt>
      <trkpt lat="43.28914" lon="5.77164">
        <ele>505</ele>
        <time>2025-10-08T14:27:28.000Z</time>
      </trkpt>
      <trkpt lat="43.2892" lon="5.77111">
        <ele>504</ele>
        <time>2025-10-08T14:28:13.000Z</time>
      </trkpt>
      <trkpt lat="43.28932" lon="5.77069">
        <ele>503</ele>
        <time>2025-10-08T14:28:50.000Z</time>
      </trkpt>
      <trkpt lat="43.28932" lon="5.77048">
        <ele>502</ele>
        <time>2025-10-08T14:29:08.000Z</time>
      </trkpt>
      <trkpt lat="43.28927" lon="5.77028">
        <ele>500</ele>
        <time>2025-10-08T14:29:26.000Z</time>
      </trkpt>
      <trkpt lat="43.28926" lon="5.76993">
        <ele>498</ele>
        <time>2025-10-08T14:29:55.000Z</time>
      </trkpt>
      <trkpt lat="43.28892" lon="5.76971">
        <ele>497</ele>
        <time>2025-10-08T14:30:39.000Z</time>
      </trkpt>
      <trkpt lat="43.28875" lon="5.76937">
        <ele>497</ele>
        <time>2025-10-08T14:31:13.000Z</time>
      </trkpt>
      <trkpt lat="43.28871" lon="5.76927">
        <ele>497</ele>
        <time>2025-10-08T14:31:23.000Z</time>
      </trkpt>
      <trkpt lat="43.2886" lon="5.76904">
        <ele>498</ele>
        <time>2025-10-08T14:31:56.000Z</time>
      </trkpt>
      <trkpt lat="43.28854" lon="5.76899">
        <ele>498</ele>
        <time>2025-10-08T14:32:04.000Z</time>
      </trkpt>
      <trkpt lat="43.28826" lon="5.76851">
        <ele>501</ele>
        <time>2025-10-08T14:33:26.000Z</time>
      </trkpt>
      <trkpt lat="43.28799" lon="5.76748">
        <ele>503</ele>
        <time>2025-10-08T14:35:18.000Z</time>
      </trkpt>
      <trkpt lat="43.28793" lon="5.7674">
        <ele>502</ele>
        <time>2025-10-08T14:35:28.000Z</time>
      </trkpt>
      <trkpt lat="43.28776" lon="5.76732">
        <ele>500</ele>
        <time>2025-10-08T14:35:49.000Z</time>
      </trkpt>
      <trkpt lat="43.28767" lon="5.76766">
        <ele>498</ele>
        <time>2025-10-08T14:36:19.000Z</time>
      </trkpt>
      <trkpt lat="43.28772" lon="5.76807">
        <ele>499</ele>
        <time>2025-10-08T14:37:04.000Z</time>
      </trkpt>
      <trkpt lat="43.28775" lon="5.76817">
        <ele>499</ele>
        <time>2025-10-08T14:37:13.000Z</time>
      </trkpt>
      <trkpt lat="43.28802" lon="5.76878">
        <ele>497</ele>
        <time>2025-10-08T14:38:12.000Z</time>
      </trkpt>
      <trkpt lat="43.28793" lon="5.76881">
        <ele>497</ele>
        <time>2025-10-08T14:38:23.000Z</time>
      </trkpt>
      <trkpt lat="43.28775" lon="5.7688">
        <ele>494</ele>
        <time>2025-10-08T14:38:43.000Z</time>
      </trkpt>
      <trkpt lat="43.2877" lon="5.76873">
        <ele>493</ele>
        <time>2025-10-08T14:38:51.000Z</time>
      </trkpt>
      <trkpt lat="43.2876" lon="5.76873">
        <ele>489</ele>
        <time>2025-10-08T14:39:03.000Z</time>
      </trkpt>
      <trkpt lat="43.28758" lon="5.76864">
        <ele>490</ele>
        <time>2025-10-08T14:39:21.000Z</time>
      </trkpt>
      <trkpt lat="43.28745" lon="5.76855">
        <ele>489</ele>
        <time>2025-10-08T14:39:38.000Z</time>
      </trkpt>
      <trkpt lat="43.28731" lon="5.7683">
        <ele>488</ele>
        <time>2025-10-08T14:40:04.000Z</time>
      </trkpt>
      <trkpt lat="43.28715" lon="5.76782">
        <ele>486</ele>
        <time>2025-10-08T14:40:48.000Z</time>
      </trkpt>
      <trkpt lat="43.28703" lon="5.76763">
        <ele>485</ele>
        <time>2025-10-08T14:41:09.000Z</time>
      </trkpt>
      <trkpt lat="43.28692" lon="5.76765">
        <ele>484</ele>
        <time>2025-10-08T14:41:22.000Z</time>
      </trkpt>
      <trkpt lat="43.28636" lon="5.76765">
        <ele>478</ele>
        <time>2025-10-08T14:42:26.000Z</time>
      </trkpt>
      <trkpt lat="43.2862" lon="5.76747">
        <ele>476</ele>
        <time>2025-10-08T14:42:50.000Z</time>
      </trkpt>
      <trkpt lat="43.28616" lon="5.76734">
        <ele>475</ele>
        <time>2025-10-08T14:43:01.000Z</time>
      </trkpt>
      <trkpt lat="43.28598" lon="5.76676">
        <ele>473</ele>
        <time>2025-10-08T14:43:54.000Z</time>
      </trkpt>
      <trkpt lat="43.28563" lon="5.76613">
        <ele>468</ele>
        <time>2025-10-08T14:45:00.000Z</time>
      </trkpt>
      <trkpt lat="43.28511" lon="5.7656">
        <ele>466</ele>
        <time>2025-10-08T14:46:14.000Z</time>
      </trkpt>
      <trkpt lat="43.28492" lon="5.76515">
        <ele>466</ele>
        <time>2025-10-08T14:46:57.000Z</time>
      </trkpt>
      <trkpt lat="43.28486" lon="5.76513">
        <ele>464</ele>
        <time>2025-10-08T14:47:04.000Z</time>
      </trkpt>
      <trkpt lat="43.28473" lon="5.76482">
        <ele>458</ele>
        <time>2025-10-08T14:47:34.000Z</time>
      </trkpt>
      <trkpt lat="43.28469" lon="5.76473">
        <ele>456</ele>
        <time>2025-10-08T14:47:43.000Z</time>
      </trkpt>
      <trkpt lat="43.28451" lon="5.76452">
        <ele>453</ele>
        <time>2025-10-08T14:48:10.000Z</time>
      </trkpt>
      <trkpt lat="43.28423" lon="5.76437">
        <ele>448</ele>
        <time>2025-10-08T14:48:45.000Z</time>
      </trkpt>
      <trkpt lat="43.28416" lon="5.76419">
        <ele>446</ele>
        <time>2025-10-08T14:49:02.000Z</time>
      </trkpt>
      <trkpt lat="43.28402" lon="5.76403">
        <ele>444</ele>
        <time>2025-10-08T14:49:23.000Z</time>
      </trkpt>
      <trkpt lat="43.28387" lon="5.76403">
        <ele>442</ele>
        <time>2025-10-08T14:49:40.000Z</time>
      </trkpt>
      <trkpt lat="43.2837" lon="5.7637">
        <ele>438</ele>
        <time>2025-10-08T14:50:14.000Z</time>
      </trkpt>
      <trkpt lat="43.28343" lon="5.76342">
        <ele>434</ele>
        <time>2025-10-08T14:50:53.000Z</time>
      </trkpt>
      <trkpt lat="43.28335" lon="5.76316">
        <ele>429</ele>
        <time>2025-10-08T14:51:16.000Z</time>
      </trkpt>
      <trkpt lat="43.28319" lon="5.76301">
        <ele>425</ele>
        <time>2025-10-08T14:51:38.000Z</time>
      </trkpt>
      <trkpt lat="43.28307" lon="5.76261">
        <ele>420</ele>
        <time>2025-10-08T14:52:14.000Z</time>
      </trkpt>
      <trkpt lat="43.28298" lon="5.76254">
        <ele>420</ele>
        <time>2025-10-08T14:52:25.000Z</time>
      </trkpt>
      <trkpt lat="43.28276" lon="5.76259">
        <ele>412</ele>
        <time>2025-10-08T14:52:51.000Z</time>
      </trkpt>
      <trkpt lat="43.28264" lon="5.76264">
        <ele>411</ele>
        <time>2025-10-08T14:53:05.000Z</time>
      </trkpt>
      <trkpt lat="43.28254" lon="5.76255">
        <ele>411</ele>
        <time>2025-10-08T14:53:19.000Z</time>
      </trkpt>
      <trkpt lat="43.28229" lon="5.76247">
        <ele>411</ele>
        <time>2025-10-08T14:53:48.000Z</time>
      </trkpt>
      <trkpt lat="43.28216" lon="5.76253">
        <ele>409</ele>
        <time>2025-10-08T14:54:04.000Z</time>
      </trkpt>
      <trkpt lat="43.28194" lon="5.76282">
        <ele>409</ele>
        <time>2025-10-08T14:54:39.000Z</time>
      </trkpt>
      <trkpt lat="43.28142" lon="5.76311">
        <ele>403</ele>
        <time>2025-10-08T14:55:44.000Z</time>
      </trkpt>
      <trkpt lat="43.28131" lon="5.76305">
        <ele>403</ele>
        <time>2025-10-08T14:55:57.000Z</time>
      </trkpt>
      <trkpt lat="43.28076" lon="5.76236">
        <ele>389</ele>
        <time>2025-10-08T14:57:23.000Z</time>
      </trkpt>
      <trkpt lat="43.28048" lon="5.76231">
        <ele>385</ele>
        <time>2025-10-08T14:57:55.000Z</time>
      </trkpt>
      <trkpt lat="43.28028" lon="5.76239">
        <ele>383</ele>
        <time>2025-10-08T14:58:19.000Z</time>
      </trkpt>
      <trkpt lat="43.28014" lon="5.76236">
        <ele>382</ele>
        <time>2025-10-08T14:58:35.000Z</time>
      </trkpt>
      <trkpt lat="43.28013" lon="5.76236">
        <ele>382</ele>
        <time>2025-10-08T14:58:36.000Z</time>
      </trkpt>
      <trkpt lat="43.27959" lon="5.76115">
        <ele>379</ele>
        <time>2025-10-08T15:00:34.000Z</time>
      </trkpt>
      <trkpt lat="43.27948" lon="5.76111">
        <ele>379</ele>
        <time>2025-10-08T15:00:47.000Z</time>
      </trkpt>
      <trkpt lat="43.27934" lon="5.76115">
        <ele>378</ele>
        <time>2025-10-08T15:01:04.000Z</time>
      </trkpt>
      <trkpt lat="43.27889" lon="5.76136">
        <ele>377</ele>
        <time>2025-10-08T15:01:59.000Z</time>
      </trkpt>
      <trkpt lat="43.27872" lon="5.7615">
        <ele>376</ele>
        <time>2025-10-08T15:02:21.000Z</time>
      </trkpt>
      <trkpt lat="43.2783" lon="5.76169">
        <ele>374</ele>
        <time>2025-10-08T15:03:11.000Z</time>
      </trkpt>
      <trkpt lat="43.27795" lon="5.76165">
        <ele>374</ele>
        <time>2025-10-08T15:03:51.000Z</time>
      </trkpt>
      <trkpt lat="43.27764" lon="5.76148">
        <ele>374</ele>
        <time>2025-10-08T15:04:29.000Z</time>
      </trkpt>
      <trkpt lat="43.27732" lon="5.76095">
        <ele>373</ele>
        <time>2025-10-08T15:05:26.000Z</time>
      </trkpt>
      <trkpt lat="43.27712" lon="5.76045">
        <ele>371</ele>
        <time>2025-10-08T15:06:13.000Z</time>
      </trkpt>
      <trkpt lat="43.27703" lon="5.76031">
        <ele>372</ele>
        <time>2025-10-08T15:06:39.000Z</time>
      </trkpt>
      <trkpt lat="43.27688" lon="5.76023">
        <ele>371</ele>
        <time>2025-10-08T15:06:57.000Z</time>
      </trkpt>
      <trkpt lat="43.27681" lon="5.76013">
        <ele>371</ele>
        <time>2025-10-08T15:07:09.000Z</time>
      </trkpt>
      <trkpt lat="43.27657" lon="5.76001">
        <ele>371</ele>
        <time>2025-10-08T15:07:38.000Z</time>
      </trkpt>
      <trkpt lat="43.27653" lon="5.75992">
        <ele>370</ele>
        <time>2025-10-08T15:07:47.000Z</time>
      </trkpt>
      <trkpt lat="43.27638" lon="5.75993">
        <ele>370</ele>
        <time>2025-10-08T15:08:04.000Z</time>
      </trkpt>
      <trkpt lat="43.27607" lon="5.76004">
        <ele>371</ele>
        <time>2025-10-08T15:08:51.000Z</time>
      </trkpt>
      <trkpt lat="43.27558" lon="5.76059">
        <ele>369</ele>
        <time>2025-10-08T15:10:03.000Z</time>
      </trkpt>
      <trkpt lat="43.27529" lon="5.7607">
        <ele>369</ele>
        <time>2025-10-08T15:10:37.000Z</time>
      </trkpt>
      <trkpt lat="43.27507" lon="5.76065">
        <ele>368</ele>
        <time>2025-10-08T15:11:03.000Z</time>
      </trkpt>
      <trkpt lat="43.27492" lon="5.76033">
        <ele>368</ele>
        <time>2025-10-08T15:11:35.000Z</time>
      </trkpt>
      <trkpt lat="43.27492" lon="5.76018">
        <ele>366</ele>
        <time>2025-10-08T15:11:48.000Z</time>
      </trkpt>
      <trkpt lat="43.27485" lon="5.75993">
        <ele>367</ele>
        <time>2025-10-08T15:12:20.000Z</time>
      </trkpt>
      <trkpt lat="43.27458" lon="5.75943">
        <ele>366</ele>
        <time>2025-10-08T15:13:12.000Z</time>
      </trkpt>
      <trkpt lat="43.2743" lon="5.75919">
        <ele>365</ele>
        <time>2025-10-08T15:13:50.000Z</time>
      </trkpt>
      <trkpt lat="43.27403" lon="5.75918">
        <ele>365</ele>
        <time>2025-10-08T15:14:22.000Z</time>
      </trkpt>
      <trkpt lat="43.27341" lon="5.75935">
        <ele>364</ele>
        <time>2025-10-08T15:15:34.000Z</time>
      </trkpt>
      <trkpt lat="43.273" lon="5.75961">
        <ele>363</ele>
        <time>2025-10-08T15:16:26.000Z</time>
      </trkpt>
      <trkpt lat="43.27195" lon="5.76035">
        <ele>361</ele>
        <time>2025-10-08T15:18:41.000Z</time>
      </trkpt>
      <trkpt lat="43.27187" lon="5.76034">
        <ele>361</ele>
        <time>2025-10-08T15:18:50.000Z</time>
      </trkpt>
      <trkpt lat="43.27173" lon="5.76022">
        <ele>361</ele>
        <time>2025-10-08T15:19:09.000Z</time>
      </trkpt>
      <trkpt lat="43.27159" lon="5.76022">
        <ele>361</ele>
        <time>2025-10-08T15:19:25.000Z</time>
      </trkpt>
      <trkpt lat="43.27146" lon="5.76003">
        <ele>360</ele>
        <time>2025-10-08T15:19:47.000Z</time>
      </trkpt>
      <trkpt lat="43.2714" lon="5.75969">
        <ele>360</ele>
        <time>2025-10-08T15:20:16.000Z</time>
      </trkpt>
      <trkpt lat="43.27144" lon="5.75911">
        <ele>360</ele>
        <time>2025-10-08T15:21:04.000Z</time>
      </trkpt>
      <trkpt lat="43.27134" lon="5.75888">
        <ele>359</ele>
        <time>2025-10-08T15:21:26.000Z</time>
      </trkpt>
      <trkpt lat="43.27115" lon="5.75877">
        <ele>359</ele>
        <time>2025-10-08T15:21:50.000Z</time>
      </trkpt>
      <trkpt lat="43.2709" lon="5.75876">
        <ele>359</ele>
        <time>2025-10-08T15:22:18.000Z</time>
      </trkpt>
      <trkpt lat="43.27022" lon="5.75894">
        <ele>359</ele>
        <time>2025-10-08T15:23:37.000Z</time>
      </trkpt>
      <trkpt lat="43.26976" lon="5.75885">
        <ele>359</ele>
        <time>2025-10-08T15:24:31.000Z</time>
      </trkpt>
      <trkpt lat="43.26951" lon="5.75886">
        <ele>359</ele>
        <time>2025-10-08T15:24:59.000Z</time>
      </trkpt>
      <trkpt lat="43.26926" lon="5.75895">
        <ele>360</ele>
        <time>2025-10-08T15:25:39.000Z</time>
      </trkpt>
      <trkpt lat="43.26903" lon="5.75913">
        <ele>360</ele>
        <time>2025-10-08T15:26:09.000Z</time>
      </trkpt>
      <trkpt lat="43.269" lon="5.75949">
        <ele>361</ele>
        <time>2025-10-08T15:26:50.000Z</time>
      </trkpt>
      <trkpt lat="43.2691" lon="5.75984">
        <ele>362</ele>
        <time>2025-10-08T15:27:31.000Z</time>
      </trkpt>
      <trkpt lat="43.26935" lon="5.76039">
        <ele>363</ele>
        <time>2025-10-08T15:28:36.000Z</time>
      </trkpt>
      <trkpt lat="43.26935" lon="5.76072">
        <ele>363</ele>
        <time>2025-10-08T15:29:04.000Z</time>
      </trkpt>
      <trkpt lat="43.26943" lon="5.76088">
        <ele>363</ele>
        <time>2025-10-08T15:29:19.000Z</time>
      </trkpt>
      <trkpt lat="43.26957" lon="5.76095">
        <ele>363</ele>
        <time>2025-10-08T15:29:36.000Z</time>
      </trkpt>
      <trkpt lat="43.27007" lon="5.76107">
        <ele>364</ele>
        <time>2025-10-08T15:30:45.000Z</time>
      </trkpt>
      <trkpt lat="43.27016" lon="5.76116">
        <ele>365</ele>
        <time>2025-10-08T15:31:08.000Z</time>
      </trkpt>
      <trkpt lat="43.27019" lon="5.76129">
        <ele>364</ele>
        <time>2025-10-08T15:31:19.000Z</time>
      </trkpt>
      <trkpt lat="43.27018" lon="5.76163">
        <ele>365</ele>
        <time>2025-10-08T15:31:57.000Z</time>
      </trkpt>
      <trkpt lat="43.27" lon="5.76221">
        <ele>366</ele>
        <time>2025-10-08T15:33:00.000Z</time>
      </trkpt>
      <trkpt lat="43.26995" lon="5.76263">
        <ele>367</ele>
        <time>2025-10-08T15:33:46.000Z</time>
      </trkpt>
      <trkpt lat="43.2698" lon="5.76322">
        <ele>367</ele>
        <time>2025-10-08T15:34:38.000Z</time>
      </trkpt>
      <trkpt lat="43.2698" lon="5.7634">
        <ele>368</ele>
        <time>2025-10-08T15:35:03.000Z</time>
      </trkpt>
      <trkpt lat="43.26985" lon="5.76366">
        <ele>369</ele>
        <time>2025-10-08T15:35:36.000Z</time>
      </trkpt>
      <trkpt lat="43.27012" lon="5.76392">
        <ele>368</ele>
        <time>2025-10-08T15:36:14.000Z</time>
      </trkpt>
      <trkpt lat="43.27065" lon="5.76427">
        <ele>370</ele>
        <time>2025-10-08T15:37:42.000Z</time>
      </trkpt>
      <trkpt lat="43.27106" lon="5.76443">
        <ele>370</ele>
        <time>2025-10-08T15:38:30.000Z</time>
      </trkpt>
      <trkpt lat="43.27128" lon="5.76477">
        <ele>371</ele>
        <time>2025-10-08T15:39:18.000Z</time>
      </trkpt>
      <trkpt lat="43.27132" lon="5.76496">
        <ele>371</ele>
        <time>2025-10-08T15:39:34.000Z</time>
      </trkpt>
      <trkpt lat="43.27131" lon="5.76525">
        <ele>372</ele>
        <time>2025-10-08T15:40:09.000Z</time>
      </trkpt>
      <trkpt lat="43.27125" lon="5.76543">
        <ele>372</ele>
        <time>2025-10-08T15:40:25.000Z</time>
      </trkpt>
      <trkpt lat="43.27102" lon="5.76591">
        <ele>373</ele>
        <time>2025-10-08T15:41:23.000Z</time>
      </trkpt>
      <trkpt lat="43.27085" lon="5.76608">
        <ele>373</ele>
        <time>2025-10-08T15:41:47.000Z</time>
      </trkpt>
      <trkpt lat="43.27054" lon="5.76652">
        <ele>373</ele>
        <time>2025-10-08T15:42:38.000Z</time>
      </trkpt>
      <trkpt lat="43.2705" lon="5.76665">
        <ele>374</ele>
        <time>2025-10-08T15:43:00.000Z</time>
      </trkpt>
      <trkpt lat="43.27053" lon="5.76678">
        <ele>374</ele>
        <time>2025-10-08T15:43:12.000Z</time>
      </trkpt>
      <trkpt lat="43.27059" lon="5.76689">
        <ele>374</ele>
        <time>2025-10-08T15:43:23.000Z</time>
      </trkpt>
      <trkpt lat="43.27071" lon="5.76696">
        <ele>374</ele>
        <time>2025-10-08T15:43:38.000Z</time>
      </trkpt>
      <trkpt lat="43.27082" lon="5.76724">
        <ele>375</ele>
        <time>2025-10-08T15:44:15.000Z</time>
      </trkpt>
      <trkpt lat="43.27113" lon="5.76769">
        <ele>376</ele>
        <time>2025-10-08T15:45:17.000Z</time>
      </trkpt>
      <trkpt lat="43.2716" lon="5.76798">
        <ele>376</ele>
        <time>2025-10-08T15:46:16.000Z</time>
      </trkpt>
      <trkpt lat="43.27166" lon="5.7681">
        <ele>376</ele>
        <time>2025-10-08T15:46:28.000Z</time>
      </trkpt>
      <trkpt lat="43.27167" lon="5.76811">
        <ele>377</ele>
        <time>2025-10-08T15:46:39.000Z</time>
      </trkpt>
      <trkpt lat="43.27183" lon="5.76813">
        <ele>377</ele>
        <time>2025-10-08T15:46:58.000Z</time>
      </trkpt>
      <trkpt lat="43.27203" lon="5.7683">
        <ele>378</ele>
        <time>2025-10-08T15:47:35.000Z</time>
      </trkpt>
      <trkpt lat="43.27225" lon="5.76814">
        <ele>378</ele>
        <time>2025-10-08T15:48:04.000Z</time>
      </trkpt>
      <trkpt lat="43.27274" lon="5.76827">
        <ele>379</ele>
        <time>2025-10-08T15:49:11.000Z</time>
      </trkpt>
      <trkpt lat="43.27292" lon="5.76858">
        <ele>379</ele>
        <time>2025-10-08T15:49:44.000Z</time>
      </trkpt>
      <trkpt lat="43.27316" lon="5.76938">
        <ele>380</ele>
        <time>2025-10-08T15:51:07.000Z</time>
      </trkpt>
      <trkpt lat="43.2732" lon="5.7696">
        <ele>381</ele>
        <time>2025-10-08T15:51:36.000Z</time>
      </trkpt>
      <trkpt lat="43.2733" lon="5.76984">
        <ele>382</ele>
        <time>2025-10-08T15:52:09.000Z</time>
      </trkpt>
      <trkpt lat="43.2733" lon="5.76998">
        <ele>382</ele>
        <time>2025-10-08T15:52:20.000Z</time>
      </trkpt>
      <trkpt lat="43.27323" lon="5.77023">
        <ele>382</ele>
        <time>2025-10-08T15:52:43.000Z</time>
      </trkpt>
      <trkpt lat="43.27304" lon="5.77061">
        <ele>382</ele>
        <time>2025-10-08T15:53:21.000Z</time>
      </trkpt>
      <trkpt lat="43.27332" lon="5.77058">
        <ele>383</ele>
        <time>2025-10-08T15:54:03.000Z</time>
      </trkpt>
      <trkpt lat="43.27362" lon="5.77051">
        <ele>383</ele>
        <time>2025-10-08T15:54:38.000Z</time>
      </trkpt>
      <trkpt lat="43.27373" lon="5.7706">
        <ele>384</ele>
        <time>2025-10-08T15:55:02.000Z</time>
      </trkpt>
      <trkpt lat="43.27387" lon="5.77064">
        <ele>384</ele>
        <time>2025-10-08T15:55:18.000Z</time>
      </trkpt>
      <trkpt lat="43.27398" lon="5.77074">
        <ele>384</ele>
        <time>2025-10-08T15:55:34.000Z</time>
      </trkpt>
      <trkpt lat="43.2742" lon="5.77079">
        <ele>385</ele>
        <time>2025-10-08T15:56:09.000Z</time>
      </trkpt>
      <trkpt lat="43.27432" lon="5.77088">
        <ele>385</ele>
        <time>2025-10-08T15:56:25.000Z</time>
      </trkpt>
      <trkpt lat="43.27446" lon="5.77121">
        <ele>386</ele>
        <time>2025-10-08T15:57:08.000Z</time>
      </trkpt>
      <trkpt lat="43.27483" lon="5.77127">
        <ele>386</ele>
        <time>2025-10-08T15:57:50.000Z</time>
      </trkpt>
      <trkpt lat="43.27515" lon="5.7716">
        <ele>387</ele>
        <time>2025-10-08T15:58:46.000Z</time>
      </trkpt>
      <trkpt lat="43.27526" lon="5.77179">
        <ele>388</ele>
        <time>2025-10-08T15:59:16.000Z</time>
      </trkpt>
      <trkpt lat="43.27555" lon="5.77209">
        <ele>389</ele>
        <time>2025-10-08T16:00:08.000Z</time>
      </trkpt>
      <trkpt lat="43.27564" lon="5.77302">
        <ele>390</ele>
        <time>2025-10-08T16:01:36.000Z</time>
      </trkpt>
      <trkpt lat="43.27543" lon="5.77371">
        <ele>391</ele>
        <time>2025-10-08T16:02:49.000Z</time>
      </trkpt>
      <trkpt lat="43.27543" lon="5.77399">
        <ele>391</ele>
        <time>2025-10-08T16:03:12.000Z</time>
      </trkpt>
      <trkpt lat="43.27545" lon="5.7741">
        <ele>391</ele>
        <time>2025-10-08T16:03:22.000Z</time>
      </trkpt>
      <trkpt lat="43.27554" lon="5.77414">
        <ele>391</ele>
        <time>2025-10-08T16:03:33.000Z</time>
      </trkpt>
      <trkpt lat="43.2757" lon="5.77592">
        <ele>394</ele>
        <time>2025-10-08T16:06:34.000Z</time>
      </trkpt>
      <trkpt lat="43.27578" lon="5.77626">
        <ele>395</ele>
        <time>2025-10-08T16:07:14.000Z</time>
      </trkpt>
      <trkpt lat="43.27587" lon="5.7766">
        <ele>396</ele>
        <time>2025-10-08T16:07:54.000Z</time>
      </trkpt>
      <trkpt lat="43.276" lon="5.7772">
        <ele>396</ele>
        <time>2025-10-08T16:08:46.000Z</time>
      </trkpt>
      <trkpt lat="43.27603" lon="5.7778">
        <ele>397</ele>
        <time>2025-10-08T16:09:46.000Z</time>
      </trkpt>
      <trkpt lat="43.2762" lon="5.77838">
        <ele>398</ele>
        <time>2025-10-08T16:10:49.000Z</time>
      </trkpt>
      <trkpt lat="43.27652" lon="5.77866">
        <ele>398</ele>
        <time>2025-10-08T16:11:32.000Z</time>
      </trkpt>
      <trkpt lat="43.27674" lon="5.77874">
        <ele>398</ele>
        <time>2025-10-08T16:11:59.000Z</time>
      </trkpt>
      <trkpt lat="43.27686" lon="5.77884">
        <ele>399</ele>
        <time>2025-10-08T16:12:25.000Z</time>
      </trkpt>
      <trkpt lat="43.27701" lon="5.77908">
        <ele>399</ele>
        <time>2025-10-08T16:12:51.000Z</time>
      </trkpt>
      <trkpt lat="43.27715" lon="5.77964">
        <ele>399</ele>
        <time>2025-10-08T16:13:40.000Z</time>
      </trkpt>
      <trkpt lat="43.27756" lon="5.78021">
        <ele>400</ele>
        <time>2025-10-08T16:14:57.000Z</time>
      </trkpt>
      <trkpt lat="43.27794" lon="5.78064">
        <ele>402</ele>
        <time>2025-10-08T16:16:14.000Z</time>
      </trkpt>
      <trkpt lat="43.27805" lon="5.78088">
        <ele>402</ele>
        <time>2025-10-08T16:16:38.000Z</time>
      </trkpt>
      <trkpt lat="43.27826" lon="5.78149">
        <ele>402</ele>
        <time>2025-10-08T16:17:34.000Z</time>
      </trkpt>
      <trkpt lat="43.27836" lon="5.78194">
        <ele>402</ele>
        <time>2025-10-08T16:18:13.000Z</time>
      </trkpt>
      <trkpt lat="43.27835" lon="5.78224">
        <ele>402</ele>
        <time>2025-10-08T16:18:38.000Z</time>
      </trkpt>
      <trkpt lat="43.27819" lon="5.78268">
        <ele>403</ele>
        <time>2025-10-08T16:19:30.000Z</time>
      </trkpt>
      <trkpt lat="43.27806" lon="5.78268">
        <ele>403</ele>
        <time>2025-10-08T16:19:45.000Z</time>
      </trkpt>
      <trkpt lat="43.27711" lon="5.78259">
        <ele>425</ele>
        <time>2025-10-08T16:25:20.000Z</time>
      </trkpt>
      <trkpt lat="43.27652" lon="5.78294">
        <ele>430</ele>
        <time>2025-10-08T16:27:25.000Z</time>
      </trkpt>
      <trkpt lat="43.27599" lon="5.78371">
        <ele>433</ele>
        <time>2025-10-08T16:29:24.000Z</time>
      </trkpt>
      <trkpt lat="43.27581" lon="5.78424">
        <ele>434</ele>
        <time>2025-10-08T16:30:24.000Z</time>
      </trkpt>
      <trkpt lat="43.27531" lon="5.78451">
        <ele>435</ele>
        <time>2025-10-08T16:31:35.000Z</time>
      </trkpt>
      <trkpt lat="43.27528" lon="5.78453">
        <ele>435</ele>
        <time>2025-10-08T16:31:39.000Z</time>
      </trkpt>
      <trkpt lat="43.27445" lon="5.78463">
        <ele>436</ele>
        <time>2025-10-08T16:33:25.000Z</time>
      </trkpt>
      <trkpt lat="43.27374" lon="5.78568">
        <ele>439</ele>
        <time>2025-10-08T16:35:56.000Z</time>
      </trkpt>
      <trkpt lat="43.27345" lon="5.78642">
        <ele>441</ele>
        <time>2025-10-08T16:37:27.000Z</time>
      </trkpt>
      <trkpt lat="43.27358" lon="5.78737">
        <ele>442</ele>
        <time>2025-10-08T16:38:58.000Z</time>
      </trkpt>
      <trkpt lat="43.27384" lon="5.7881">
        <ele>443</ele>
        <time>2025-10-08T16:40:16.000Z</time>
      </trkpt>
      <trkpt lat="43.27432" lon="5.78946">
        <ele>444</ele>
        <time>2025-10-08T16:42:33.000Z</time>
      </trkpt>
      <trkpt lat="43.27468" lon="5.79033">
        <ele>444</ele>
        <time>2025-10-08T16:43:56.000Z</time>
      </trkpt>
      <trkpt lat="43.27477" lon="5.79287">
        <ele>446</ele>
        <time>2025-10-08T16:47:48.000Z</time>
      </trkpt>
      <trkpt lat="43.27491" lon="5.7932">
        <ele>446</ele>
        <time>2025-10-08T16:48:20.000Z</time>
      </trkpt>
      <trkpt lat="43.27474" lon="5.79393">
        <ele>445</ele>
        <time>2025-10-08T16:49:24.000Z</time>
      </trkpt>
      <trkpt lat="43.27467" lon="5.79399">
        <ele>445</ele>
        <time>2025-10-08T16:49:33.000Z</time>
      </trkpt>
      <trkpt lat="43.27457" lon="5.79398">
        <ele>446</ele>
        <time>2025-10-08T16:49:55.000Z</time>
      </trkpt>
      <trkpt lat="43.27448" lon="5.7939">
        <ele>446</ele>
        <time>2025-10-08T16:50:08.000Z</time>
      </trkpt>
      <trkpt lat="43.27451" lon="5.79397">
        <ele>446</ele>
        <time>2025-10-08T16:50:15.000Z</time>
      </trkpt>
      <trkpt lat="43.27448" lon="5.7939">
        <ele>446</ele>
        <time>2025-10-08T16:50:22.000Z</time>
      </trkpt>
      <trkpt lat="43.27433" lon="5.79369">
        <ele>446</ele>
        <time>2025-10-08T16:50:47.000Z</time>
      </trkpt>
      <trkpt lat="43.27405" lon="5.79351">
        <ele>445</ele>
        <time>2025-10-08T16:51:21.000Z</time>
      </trkpt>
      <trkpt lat="43.27366" lon="5.79333">
        <ele>447</ele>
        <time>2025-10-08T16:52:29.000Z</time>
      </trkpt>
      <trkpt lat="43.27358" lon="5.79335">
        <ele>447</ele>
        <time>2025-10-08T16:52:38.000Z</time>
      </trkpt>
    </trkseg>
  </trk>
</gpx>